AirNav   Air Wisconsin Up To $57,000 Bonus
 
 787 users online  

3TE3 Lazy Dog Ranch Airpark
Nevada, Texas, USA

GOING TO NEVADA?


FAA INFORMATION EFFECTIVE 26 MARCH 2020

Location

FAA Identifier: 3TE3
Lat/Long: 33-04-26.4500N 096-25-55.2000W
33-04.440833N 096-25.920000W
33.0740139,-96.4320000
(estimated)
Elevation: 600 ft. / 183 m (estimated)
From city: 3 miles NW of NEVADA, TX
Time zone: UTC -5 (UTC -6 during Standard Time)
Zip code: 75173

Airport Operations

Airport use: Private use. Permission required prior to landing
Activation date: 02/2015
Control tower: no
ARTCC: FORT WORTH CENTER
FSS: FORT WORTH FLIGHT SERVICE STATION
Attendance: 
Wind indicator: yes
Segmented circle: no

Airport Communications

CTAF: 122.9
WX AWOS-3 at F46 (9 nm S): 121.25 (972-772-6699)
WX ASOS at TKI (10 nm NW): 119.925 (972-548-8525)
WX AWOS-3 at GVT (18 nm E): 133.425 (903-455-7703)

Nearby radio navigation aids

VOR radial/distance  VOR name  Freq  Var
CVEr059/26.2COWBOY VOR/DME116.2006E
BYPr194/29.5BONHAM VORTAC114.6006E
TTTr062/33.0MAVERICK VOR/DME113.1006E
FUZr068/39.2RANGER VORTAC115.7006E

 
NDB name  Hdg/Dist  Freq  Var  ID
CADDO MILLS276/9.531606EMII -- .. ..
MESQUITE014/16.624803EPQF .--. --.- ..-.
TRAVIS328/21.026006EAVZ .- ...- --..

Airport Services

Runway Information

Runway 18/36

Dimensions: 1300 x 90 ft. / 396 x 27 m
Surface: turf
Runway edge markings: YELLOW POLES.
RUNWAY 18  RUNWAY 36
Traffic pattern: leftright
Markings: NSTDNSTD

Airport Ownership and Management from official FAA records

Ownership: Privately-owned
Owner: PETER & CHERYL PITZER
120 E FM 544 STE 72-362
MURPHY, TX 75094
Phone 817-832-8513
Manager: PETER PITZER
14705 CR 545
NEVADA, TX 75173
Phone 817-832-8513

Airport Operational Statistics

Aircraft based on the field: 3
Single engine airplanes: 2
Helicopters: 1
    

Additional Remarks

RWY 18/36 MARKED WITH YELLOW POLES.
FOR CD CTC REGIONAL APCH AT 972-615-2799.

Instrument Procedures

There are no published instrument procedures at 3TE3.

Some nearby airports with instrument procedures:

F46 - Ralph M Hall/Rockwall Municipal Airport (9 nm S)
7F3 - Caddo Mills Municipal Airport (10 nm E)
KTKI - McKinney National Airport (10 nm NW)
KGVT - Majors Airport (18 nm E)
KHQZ - Mesquite Metro Airport (20 nm S)
 
Loc | Ops | Rwys | IFR | FBO | Links
Com | Nav | Svcs | Stats | Notes
Aerial photo
No photo
 
Airport distance calculator
Flying to Lazy Dog Ranch Airpark? Find the distance to fly.

From to 3TE3

Sunrise and sunset
Times for 04-Apr-2020
 Local
(UTC-5)
 Zulu
(UTC)
Morning civil twilight06:4411:44
Sunrise07:0912:09
Sunset19:4800:48
Evening civil twilight20:1301:13

Current date and time
Zulu (UTC)  04-Apr-2020 22:52:59
Local (UTC-5)  04-Apr-2020 17:52:59
 
METAR
KF46 
9nm S 
042235Z AUTO 05007KT 10SM OVC010 09/09 A3000 RMK AO2 T00900086
KTKI 
10nm NW 
042153Z 02009KT 10SM OVC009 08/06 A3001 RMK AO2 RAE17 SLP175 P0001 T00830061
KGVT 
18nm E 
042230Z AUTO 03003KT 10SM OVC010 10/08 A3001 RMK AO2
TAF
KDAL 
25nm SW 
042102Z 0421/0518 05005KT P6SM VCSH BKN010 OVC090 FM050200 03004KT P6SM BKN025 FM050900 VRB03KT 6SM BR OVC012 TEMPO 0513/0516 3SM BR BKN008
NOTAMs
Click for the latest NOTAMs
NOTAMs are issued by the DoD/FAA and will open in a separate window not controlled by AirNav.

 

 
 

Would you like to see your business listed on this page?

 If your business provides an interesting product or service to pilots, flight crews, aircraft, or users of the Lazy Dog Ranch Airpark, you should consider listing it here.  To start the listing process, click on the button below
 
Add a business
 

Other Pages about Lazy Dog Ranch Airpark

Update a link
 
Copyright © AirNav, LLC. All rights reserved. Privacy Policy  Contact